Cenk Y — TCZV7 — position and weather

sailwx.info

Track history (hours):
 
Tides and Currents Weather Stations Pressure Air Temp Water Temp Dewpoint Dewpoint Depression Visibility Wind Speed Wind Dir Waves Ship Positions

Cenk Y

Last reported at 2015-Jul-30 16:22 UTC. Time now 2015-Aug-01 01:26 UTC.
Position N 34°30' E 034°28'.

Length 150 m; draft 5 m.

Type: Ship. MMSI: 271042575.

Date/timePositionNaut miles runAvg speedWind from/ knotsBaromVisibWave heightAir tempDewpointWater temp
2015-Jul-30 16:22N 34°30' E 034°28'5914.0
2015-Jul-30 12:07N 33°38' E 033°53'2113.6
2015-Jul-30 10:33N 33°19' E 033°41'3413.8
2015-Jul-30 08:06N 32°49' E 033°23'7613.5
2015-Jul-30 02:28N 31°43' E 032°39'1413.2
2015-Jul-30 01:26N 31°36' E 032°25'1312.3
2015-Jul-30 00:24N 31°23' E 032°24'  
2015-Jul-25 07:29N 31°20' E 032°18'0 0.0
2015-Jul-25 06:21N 31°20' E 032°18'29 9.6
2015-Jul-25 03:17N 31°46' E 032°36'1413.0
2015-Jul-25 02:14N 31°58' E 032°43'4913.0
2015-Jul-24 22:28N 32°41' E 033°11'1213.1
2015-Jul-24 21:33N 32°52' E 033°17'1813.7
2015-Jul-24 20:14N 33°08' E 033°28'2314.0
2015-Jul-24 18:33N 33°28' E 033°41'1413.7
2015-Jul-24 17:33N 33°40' E 033°49'1413.4
2015-Jul-24 16:33N 33°52' E 033°57'1313.2
2015-Jul-24 15:32N 34°03' E 034°05'1312.9
2015-Jul-24 14:33N 34°14' E 034°12'1312.9
2015-Jul-24 13:33N 34°26' E 034°20'1313.1
2015-Jul-24 12:32N 34°38' E 034°28'1513.4
2015-Jul-24 11:25N 34°51' E 034°36'1313.5
2015-Jul-24 10:27N 35°02' E 034°44'4013.5
2015-Jul-24 07:31N 35°37' E 035°07'  
Track history (hours):
 
Tides and Currents Weather Stations Pressure Air Temp Water Temp Dewpoint Dewpoint Depression Visibility Wind Speed Wind Dir Waves Ship Positions

Cenk Y

Last reported at 2015-Jul-30 16:22 UTC. Time now 2015-Aug-01 01:26 UTC.
Position N 34°30' E 034°28'.

Length 150 m; draft 5 m.

Type: Ship. MMSI: 271042575.

Date/timePositionNaut miles runAvg speedWind from/ knotsBaromVisibWave heightAir tempDewpointWater temp
2015-Jul-30 16:22N 34°30' E 034°28'5914.0
2015-Jul-30 12:07N 33°38' E 033°53'2113.6
2015-Jul-30 10:33N 33°19' E 033°41'3413.8
2015-Jul-30 08:06N 32°49' E 033°23'7613.5
2015-Jul-30 02:28N 31°43' E 032°39'1413.2
2015-Jul-30 01:26N 31°36' E 032°25'1312.3
2015-Jul-30 00:24N 31°23' E 032°24'  
2015-Jul-25 07:29N 31°20' E 032°18'0 0.0
2015-Jul-25 06:21N 31°20' E 032°18'29 9.6
2015-Jul-25 03:17N 31°46' E 032°36'1413.0
2015-Jul-25 02:14N 31°58' E 032°43'4913.0
2015-Jul-24 22:28N 32°41' E 033°11'1213.1
2015-Jul-24 21:33N 32°52' E 033°17'1813.7
2015-Jul-24 20:14N 33°08' E 033°28'2314.0
2015-Jul-24 18:33N 33°28' E 033°41'1413.7
2015-Jul-24 17:33N 33°40' E 033°49'1413.4
2015-Jul-24 16:33N 33°52' E 033°57'1313.2
2015-Jul-24 15:32N 34°03' E 034°05'1312.9
2015-Jul-24 14:33N 34°14' E 034°12'1312.9
2015-Jul-24 13:33N 34°26' E 034°20'1313.1
2015-Jul-24 12:32N 34°38' E 034°28'1513.4
2015-Jul-24 11:25N 34°51' E 034°36'1313.5
2015-Jul-24 10:27N 35°02' E 034°44'4013.5
2015-Jul-24 07:31N 35°37' E 035°07'  

Dump ship's entire track history